Terminal Aerodrome Forecast
Issued by NWS

Home | Current Version | Previous Version | Text Only | Print | Product List | Glossary On
Versions: 1 2 3 4 5 6 7 8 9 10 11 12 13 14 15 16 17 18 19 20 21 22 23 24 25 26 27 28 29 30 31 32 33 34 35 36 37 38 39
000
FTUS44 KHGX 051138
TAFCXO
TAF
KCXO 051138Z 0512/0612 00000KT 6SM BR SCT010
      TEMPO 0512/0513 4SM BR
     FM051400 17003KT P6SM SCT030
     FM051900 18008KT P6SM VCSH BKN040
     FM060000 15004KT P6SM SKC
     FM060900 VRB02KT 3SM BR SCT250=

USA.gov is the U.S. government's official web portal to all federal, state and local government web resources and services.